createdAt,value
2024-05-09T00:00:01.508Z,37
2024-05-09T00:02:32.483Z,36
2024-05-09T00:05:02.993Z,40
2024-05-09T00:07:33.407Z,35
2024-05-09T00:10:05.533Z,35
2024-05-09T00:12:34.833Z,43
2024-05-09T00:15:05.120Z,50
2024-05-09T00:17:35.317Z,37
2024-05-09T00:20:13.975Z,34
2024-05-09T00:22:35.862Z,41
2024-05-09T00:25:06.438Z,44
2024-05-09T00:27:37.395Z,36
2024-05-09T00:30:11.575Z,43
2024-05-09T00:32:38.273Z,41
2024-05-09T00:35:08.939Z,40
2024-05-09T00:37:38.923Z,35
2024-05-09T00:42:39.448Z,42
2024-05-09T00:45:09.734Z,44
2024-05-09T00:47:40.803Z,49
2024-05-09T00:50:16.023Z,42
2024-05-09T00:52:41.502Z,39
2024-05-09T00:55:12.244Z,48
2024-05-09T00:57:42.790Z,37
2024-05-09T01:00:22.523Z,44
2024-05-09T01:02:43.289Z,37
2024-05-09T01:05:14.268Z,45
2024-05-09T01:07:44.275Z,59
2024-05-09T01:10:21.199Z,44
2024-05-09T01:12:44.951Z,50
2024-05-09T01:15:15.321Z,48
2024-05-09T01:17:46.373Z,41
2024-05-09T01:20:23.032Z,37
2024-05-09T01:22:47.380Z,43
2024-05-09T01:25:17.996Z,47
2024-05-09T01:27:48.696Z,61
2024-05-09T01:30:24.327Z,46
2024-05-09T01:32:49.163Z,55
2024-05-09T01:35:19.233Z,47
2024-05-09T01:37:49.443Z,49
2024-05-09T01:40:28.526Z,44
2024-05-09T01:42:50.041Z,59
2024-05-09T01:45:20.562Z,52
2024-05-09T01:47:51.498Z,49
2024-05-09T01:50:33.280Z,53
2024-05-09T01:52:52.118Z,50
2024-05-09T01:55:22.094Z,59
2024-05-09T01:57:52.197Z,64
2024-05-09T02:00:33.177Z,64
2024-05-09T02:02:52.562Z,64
2024-05-09T02:05:22.969Z,59
2024-05-09T02:07:53.016Z,74
2024-05-09T02:10:30.177Z,88
2024-05-09T02:12:53.816Z,90
2024-05-09T02:15:24.350Z,150
2024-05-09T02:17:55.700Z,118
2024-05-09T02:20:30.392Z,60
2024-05-09T02:22:56.438Z,136
2024-05-09T02:25:26.686Z,58
2024-05-09T02:27:56.822Z,36
2024-05-09T02:30:36.263Z,30
2024-05-09T02:32:57.637Z,36
2024-05-09T02:35:28.389Z,38
2024-05-09T02:37:58.906Z,36
2024-05-09T02:40:36.423Z,41
2024-05-09T02:43:00.171Z,36
2024-05-09T02:45:30.885Z,38
2024-05-09T02:48:02.171Z,33
2024-05-09T02:50:37.724Z,34
2024-05-09T02:53:02.143Z,35
2024-05-09T02:55:32.555Z,30
2024-05-09T02:58:02.695Z,29
2024-05-09T03:00:39.412Z,33
2024-05-09T03:03:03.148Z,32
2024-05-09T03:05:33.698Z,34
2024-05-09T03:08:04.392Z,34
2024-05-09T03:13:04.575Z,32
2024-05-09T03:15:34.868Z,30
2024-05-09T03:18:05.188Z,32
2024-05-09T03:20:36.521Z,37
2024-05-09T03:23:06.556Z,34
2024-05-09T03:25:36.636Z,37
2024-05-09T03:28:07.542Z,36
2024-05-09T03:30:41.905Z,36
2024-05-09T03:33:08.269Z,44
2024-05-09T03:35:38.551Z,42
2024-05-09T03:38:09.435Z,41
2024-05-09T03:40:40.026Z,43
2024-05-09T03:43:10.925Z,42
2024-05-09T03:45:41.764Z,39
2024-05-09T03:48:12.351Z,39
2024-05-09T03:50:42.713Z,39
2024-05-09T03:53:13.053Z,44
2024-05-09T03:55:42.942Z,41
2024-05-09T03:58:13.762Z,36
2024-05-09T04:00:44.075Z,39
2024-05-09T04:03:15.152Z,36
2024-05-09T04:05:45.271Z,39
2024-05-09T04:08:16.101Z,39
2024-05-09T04:10:46.063Z,36
2024-05-09T04:13:16.622Z,47
2024-05-09T04:15:46.959Z,41
2024-05-09T04:18:17.773Z,45
2024-05-09T04:20:47.877Z,42
2024-05-09T04:23:18.002Z,40
2024-05-09T04:25:48.772Z,47
2024-05-09T04:28:19.137Z,46
2024-05-09T04:30:49.767Z,45
2024-05-09T04:33:20.758Z,49
2024-05-09T04:35:51.071Z,47
2024-05-09T04:38:21.650Z,43
2024-05-09T04:40:51.910Z,43
2024-05-09T04:43:22.723Z,37
2024-05-09T04:45:53.587Z,41
2024-05-09T04:48:24.266Z,43
2024-05-09T04:50:54.583Z,45
2024-05-09T04:53:24.818Z,41
2024-05-09T04:55:55.444Z,42
2024-05-09T04:58:26.330Z,44
2024-05-09T05:00:56.545Z,43
2024-05-09T05:03:27.383Z,44
2024-05-09T05:05:57.841Z,36
2024-05-09T05:08:27.856Z,33
2024-05-09T05:10:58.042Z,39
2024-05-09T05:13:28.396Z,35
2024-05-09T05:15:58.883Z,38
2024-05-09T05:18:29.375Z,38
2024-05-09T05:20:59.549Z,34
2024-05-09T05:23:29.963Z,38
2024-05-09T05:26:00.312Z,31
2024-05-09T05:28:30.286Z,35
2024-05-09T05:31:00.530Z,34
2024-05-09T05:33:31.732Z,34
2024-05-09T05:36:02.292Z,37
2024-05-09T05:38:32.646Z,34
2024-05-09T05:41:02.654Z,36
2024-05-09T05:43:32.698Z,38
2024-05-09T05:46:03.566Z,36
2024-05-09T05:48:33.702Z,37
2024-05-09T05:51:04.916Z,36
2024-05-09T05:53:35.007Z,36
2024-05-09T05:56:05.396Z,35
2024-05-09T05:58:35.728Z,32
2024-05-09T06:01:06.262Z,36
2024-05-09T06:03:37.242Z,33
2024-05-09T06:06:07.718Z,34
2024-05-09T06:08:38.131Z,32
2024-05-09T06:11:08.265Z,37
2024-05-09T06:13:38.614Z,34
2024-05-09T06:16:09.023Z,33
2024-05-09T06:18:40.132Z,31
2024-05-09T06:21:10.418Z,33
2024-05-09T06:23:41.041Z,31
2024-05-09T06:26:11.664Z,34
2024-05-09T06:28:42.377Z,29
2024-05-09T06:31:12.962Z,29
2024-05-09T06:33:43.625Z,33
2024-05-09T06:36:13.811Z,35
2024-05-09T06:38:43.975Z,28
2024-05-09T06:41:14.261Z,33
2024-05-09T06:43:44.578Z,29
2024-05-09T06:46:15.019Z,34
2024-05-09T06:48:46.013Z,38
2024-05-09T06:51:15.767Z,36
2024-05-09T06:53:45.953Z,32
2024-05-09T06:56:16.580Z,32
2024-05-09T06:58:46.925Z,35
2024-05-09T07:01:17.617Z,34
2024-05-09T07:03:48.012Z,31
2024-05-09T07:06:18.290Z,37
2024-05-09T07:08:51.925Z,31
2024-05-09T07:11:19.472Z,30
2024-05-09T07:13:49.746Z,30
2024-05-09T07:16:19.857Z,36
2024-05-09T07:18:50.984Z,33
2024-05-09T07:21:20.780Z,28
2024-05-09T07:23:51.425Z,37
2024-05-09T07:26:21.587Z,32
2024-05-09T07:28:51.891Z,30
2024-05-09T07:31:22.151Z,34
2024-05-09T07:33:52.608Z,32
2024-05-09T07:36:22.782Z,33
2024-05-09T07:38:52.825Z,34
2024-05-09T07:41:23.372Z,34
2024-05-09T07:43:53.827Z,38
2024-05-09T07:47:14.650Z,30
2024-05-09T07:50:35.549Z,31
2024-05-09T07:53:58.270Z,33
2024-05-09T07:56:26.428Z,33
2024-05-09T07:58:56.315Z,31
2024-05-09T08:01:26.503Z,62
2024-05-09T08:03:56.727Z,68
2024-05-09T08:06:27.610Z,50
2024-05-09T08:09:00.717Z,50
2024-05-09T08:11:28.079Z,32
2024-05-09T08:13:58.199Z,59
2024-05-09T08:16:28.418Z,39
2024-05-09T08:18:58.988Z,39
2024-05-09T08:21:29.941Z,39
2024-05-09T08:24:00.139Z,40
2024-05-09T08:26:30.623Z,105
2024-05-09T08:29:01.121Z,40
2024-05-09T08:31:31.842Z,41
2024-05-09T08:34:02.320Z,33
2024-05-09T08:36:32.868Z,47
2024-05-09T08:39:02.894Z,32
2024-05-09T08:41:33.049Z,29
2024-05-09T08:44:03.521Z,27
2024-05-09T08:46:34.312Z,31
2024-05-09T08:49:04.774Z,40
2024-05-09T08:51:34.748Z,29
2024-05-09T08:54:05.561Z,28
2024-05-09T08:56:35.695Z,32
2024-05-09T08:59:06.298Z,26
2024-05-09T09:01:37.982Z,32
2024-05-09T09:04:07.623Z,25
2024-05-09T09:06:37.889Z,27
2024-05-09T09:09:08.489Z,28
2024-05-09T09:11:38.699Z,26
2024-05-09T09:14:09.353Z,31
2024-05-09T09:16:39.805Z,31
2024-05-09T09:19:10.313Z,27
2024-05-09T09:21:41.109Z,31
2024-05-09T09:24:11.833Z,27
2024-05-09T09:26:42.310Z,25
2024-05-09T09:29:13.073Z,30
2024-05-09T09:31:43.190Z,25
2024-05-09T09:34:13.469Z,30
2024-05-09T09:36:43.479Z,29
2024-05-09T09:39:14.160Z,27
2024-05-09T09:41:44.269Z,24
2024-05-09T09:44:14.432Z,29
2024-05-09T09:46:44.782Z,27
2024-05-09T09:49:15.057Z,26
2024-05-09T09:51:45.110Z,31
2024-05-09T09:54:15.328Z,27
2024-05-09T09:56:45.752Z,25
2024-05-09T09:59:16.379Z,28
2024-05-09T10:01:46.675Z,29
2024-05-09T10:04:16.822Z,30
2024-05-09T10:06:47.270Z,28
2024-05-09T10:09:17.643Z,18
2024-05-09T10:11:51.984Z,15
2024-05-09T10:14:18.074Z,16
2024-05-09T10:16:48.024Z,18
2024-05-09T10:19:18.498Z,19
2024-05-09T10:21:48.506Z,16
2024-05-09T10:24:18.573Z,19
2024-05-09T10:26:49.168Z,16
2024-05-09T10:29:19.535Z,17
2024-05-09T10:31:49.994Z,23
2024-05-09T10:34:21.029Z,22
2024-05-09T10:36:51.552Z,22
2024-05-09T10:39:21.637Z,20
2024-05-09T10:41:52.497Z,20
2024-05-09T10:44:22.230Z,17
2024-05-09T10:46:52.946Z,22
2024-05-09T10:49:23.347Z,19
2024-05-09T10:51:53.854Z,23
2024-05-09T10:54:23.999Z,23
2024-05-09T10:56:54.706Z,24
2024-05-09T10:59:25.421Z,21
2024-05-09T11:01:55.666Z,24
2024-05-09T11:04:26.224Z,19
2024-05-09T11:06:56.441Z,23
2024-05-09T11:09:27.027Z,21
2024-05-09T11:11:57.602Z,23
2024-05-09T11:14:27.913Z,20
2024-05-09T11:16:58.408Z,25
2024-05-09T11:19:28.571Z,21
2024-05-09T11:21:58.694Z,20
2024-05-09T11:24:28.747Z,22
2024-05-09T11:26:59.274Z,17
2024-05-09T11:29:30.368Z,21
2024-05-09T11:32:00.993Z,17
2024-05-09T11:34:31.573Z,19
2024-05-09T11:37:01.622Z,22
2024-05-09T11:39:32.310Z,19
2024-05-09T11:42:02.512Z,44
2024-05-09T11:44:32.976Z,27
2024-05-09T11:47:03.304Z,31
2024-05-09T11:49:34.122Z,40
2024-05-09T11:52:04.084Z,34
2024-05-09T11:54:34.641Z,51
2024-05-09T11:57:05.232Z,30
2024-05-09T11:59:35.910Z,29
2024-05-09T12:02:06.577Z,30
2024-05-09T12:04:37.402Z,32
2024-05-09T12:07:09.730Z,35
2024-05-09T12:09:38.804Z,50
2024-05-09T12:12:09.024Z,30
2024-05-09T12:14:40.022Z,35
2024-05-09T12:17:10.377Z,57
2024-05-09T12:19:40.908Z,26
2024-05-09T12:22:11.779Z,39
2024-05-09T12:24:42.250Z,27
2024-05-09T12:27:12.315Z,40
2024-05-09T12:29:43.118Z,24
2024-05-09T12:32:13.362Z,27
2024-05-09T12:34:43.672Z,26
2024-05-09T12:37:14.370Z,30
2024-05-09T12:39:44.849Z,33
2024-05-09T12:42:26.370Z,34
2024-05-09T12:44:45.397Z,33
2024-05-09T12:47:15.680Z,124
2024-05-09T12:49:46.393Z,29
2024-05-09T12:52:17.047Z,21
2024-05-09T12:54:47.130Z,60
2024-05-09T12:57:17.124Z,65
2024-05-09T12:59:47.751Z,33
2024-05-09T13:02:18.593Z,20
2024-05-09T13:04:48.670Z,31
2024-05-09T13:07:19.436Z,29
2024-05-09T13:09:49.603Z,20
2024-05-09T13:12:21.514Z,20
2024-05-09T13:14:50.175Z,62
2024-05-09T13:17:21.034Z,53
2024-05-09T13:19:51.111Z,29
2024-05-09T13:22:21.785Z,25
2024-05-09T13:24:51.965Z,34
2024-05-09T13:27:22.642Z,33
2024-05-09T13:29:53.028Z,18
2024-05-09T13:32:23.649Z,21
2024-05-09T13:34:53.710Z,23
2024-05-09T13:37:24.303Z,16
2024-05-09T13:39:54.557Z,19
2024-05-09T13:42:25.379Z,25
2024-05-09T13:44:55.653Z,26
2024-05-09T13:47:25.746Z,28
2024-05-09T13:49:56.173Z,32
2024-05-09T13:52:26.983Z,28
2024-05-09T13:54:57.635Z,30
2024-05-09T13:57:28.044Z,22
2024-05-09T13:59:58.109Z,27
2024-05-09T14:02:28.387Z,25
2024-05-09T14:04:58.532Z,27
2024-05-09T14:07:28.551Z,22
2024-05-09T14:09:59.239Z,22
2024-05-09T14:12:29.535Z,22
2024-05-09T14:15:00.148Z,21
2024-05-09T14:17:30.967Z,22
2024-05-09T14:20:01.404Z,19
2024-05-09T14:22:31.702Z,21
2024-05-09T14:25:02.061Z,30
2024-05-09T14:27:32.321Z,25
2024-05-09T14:30:04.128Z,21
2024-05-09T14:32:33.103Z,26
2024-05-09T14:35:02.946Z,58
2024-05-09T14:37:35.511Z,24
2024-05-09T14:40:06.905Z,37
2024-05-09T14:42:34.692Z,21
2024-05-09T14:45:05.527Z,23
2024-05-09T14:47:36.201Z,19
2024-05-09T14:50:08.814Z,18
2024-05-09T14:52:37.028Z,19
2024-05-09T14:55:10.221Z,18
2024-05-09T14:57:37.315Z,16
2024-05-09T15:02:38.159Z,17
2024-05-09T15:05:08.778Z,20
2024-05-09T15:07:38.733Z,17
2024-05-09T15:10:16.580Z,22
2024-05-09T15:12:40.112Z,15
2024-05-09T15:15:10.662Z,17
2024-05-09T15:17:41.059Z,17
2024-05-09T15:20:17.015Z,16
2024-05-09T15:22:41.534Z,15
2024-05-09T15:25:12.158Z,17
2024-05-09T15:27:42.421Z,16
2024-05-09T15:30:13.301Z,22
2024-05-09T15:32:43.743Z,15
2024-05-09T15:35:13.488Z,16
2024-05-09T15:37:43.787Z,13
2024-05-09T15:40:18.856Z,15
2024-05-09T15:42:44.957Z,15
2024-05-09T15:45:15.218Z,15
2024-05-09T15:47:46.110Z,17
2024-05-09T15:50:23.507Z,15
2024-05-09T15:52:47.218Z,17
2024-05-09T15:55:17.620Z,18
2024-05-09T15:57:48.390Z,15
2024-05-09T16:00:28.414Z,16
2024-05-09T16:02:49.505Z,15
2024-05-09T16:05:19.807Z,15
2024-05-09T16:07:49.747Z,18
2024-05-09T16:10:25.525Z,17
2024-05-09T16:12:50.385Z,20
2024-05-09T16:15:20.871Z,21
2024-05-09T16:17:51.458Z,17
2024-05-09T16:22:51.932Z,20
2024-05-09T16:25:21.970Z,15
2024-05-09T16:27:52.236Z,17
2024-05-09T16:30:31.459Z,13
2024-05-09T16:32:53.395Z,18
2024-05-09T16:35:23.638Z,16
2024-05-09T16:37:53.751Z,14
2024-05-09T16:40:33.073Z,13
2024-05-09T16:42:54.402Z,16
2024-05-09T16:45:24.486Z,17
2024-05-09T16:47:54.836Z,14
2024-05-09T16:50:29.621Z,15
2024-05-09T16:52:55.183Z,18
2024-05-09T16:55:25.722Z,14
2024-05-09T16:57:56.321Z,15
2024-05-09T17:00:38.113Z,14
2024-05-09T17:02:57.392Z,15
2024-05-09T17:05:28.266Z,17
2024-05-09T17:07:58.236Z,15
2024-05-09T17:10:33.049Z,16
2024-05-09T17:12:58.898Z,16
2024-05-09T17:15:28.857Z,15
2024-05-09T17:17:59.220Z,17
2024-05-09T17:20:34.059Z,16
2024-05-09T17:22:59.505Z,13
2024-05-09T17:25:29.824Z,14
2024-05-09T17:28:00.508Z,17
2024-05-09T17:30:35.543Z,15
2024-05-09T17:33:01.000Z,14
2024-05-09T17:35:31.145Z,13
2024-05-09T17:38:01.353Z,15
2024-05-09T17:40:35.534Z,15
2024-05-09T17:43:02.439Z,11
2024-05-09T17:45:32.686Z,14
2024-05-09T17:48:03.098Z,14
2024-05-09T17:50:36.030Z,15
2024-05-09T17:53:03.312Z,15
2024-05-09T17:55:33.827Z,12
2024-05-09T17:58:03.667Z,13
2024-05-09T18:00:38.989Z,12
2024-05-09T18:03:04.330Z,14
2024-05-09T18:05:35.441Z,16
2024-05-09T18:08:05.870Z,14
2024-05-09T18:10:38.621Z,11
2024-05-09T18:13:07.170Z,11
2024-05-09T18:15:36.944Z,12
2024-05-09T18:18:08.061Z,11
2024-05-09T18:20:43.474Z,13
2024-05-09T18:23:08.334Z,14
2024-05-09T18:25:39.032Z,12
2024-05-09T18:28:09.443Z,9
2024-05-09T18:30:39.859Z,12
2024-05-09T18:33:10.632Z,13
2024-05-09T18:35:40.251Z,12
2024-05-09T18:38:10.615Z,11
2024-05-09T18:40:42.966Z,12
2024-05-09T18:43:11.229Z,13
2024-05-09T18:45:41.569Z,11
2024-05-09T18:48:11.973Z,15
2024-05-09T18:50:42.217Z,12
2024-05-09T18:53:13.464Z,13
2024-05-09T18:55:42.823Z,13
2024-05-09T18:58:13.259Z,10
2024-05-09T19:00:46.020Z,11
2024-05-09T19:03:14.791Z,11
2024-05-09T19:05:46.139Z,15
2024-05-09T19:08:15.369Z,12
2024-05-09T19:10:45.630Z,15
2024-05-09T19:13:16.124Z,18
2024-05-09T19:15:47.024Z,11
2024-05-09T19:18:17.573Z,15
2024-05-09T19:20:48.238Z,12
2024-05-09T19:23:18.521Z,15
2024-05-09T19:25:48.846Z,14
2024-05-09T19:28:19.287Z,14
2024-05-09T19:30:49.564Z,17
2024-05-09T19:33:20.487Z,15
2024-05-09T19:35:50.687Z,18
2024-05-09T19:38:21.593Z,13
2024-05-09T19:40:51.996Z,20
2024-05-09T19:43:22.010Z,15
2024-05-09T19:45:52.904Z,18
2024-05-09T19:48:23.846Z,16
2024-05-09T19:50:54.666Z,17
2024-05-09T19:53:25.504Z,18
2024-05-09T19:55:56.389Z,18
2024-05-09T19:58:26.906Z,19
2024-05-09T20:00:57.150Z,16
2024-05-09T20:03:27.998Z,19
2024-05-09T20:05:58.374Z,18
2024-05-09T20:08:28.903Z,19
2024-05-09T20:10:59.340Z,18
2024-05-09T20:13:29.887Z,17
2024-05-09T20:16:00.610Z,18
2024-05-09T20:18:30.926Z,21
2024-05-09T20:21:01.173Z,19
2024-05-09T20:23:31.202Z,20
2024-05-09T20:26:01.277Z,20
2024-05-09T20:28:32.014Z,18
2024-05-09T20:31:01.970Z,21
2024-05-09T20:33:32.856Z,17
2024-05-09T20:36:02.943Z,22
2024-05-09T20:38:33.615Z,20
2024-05-09T20:41:03.981Z,23
2024-05-09T20:43:34.053Z,23
2024-05-09T20:46:04.401Z,25
2024-05-09T20:48:34.643Z,25
2024-05-09T20:51:05.116Z,26
2024-05-09T20:53:35.744Z,23
2024-05-09T20:56:05.813Z,23
2024-05-09T20:58:36.476Z,23
2024-05-09T21:01:06.968Z,24
2024-05-09T21:03:37.575Z,25
2024-05-09T21:06:07.338Z,23
2024-05-09T21:08:37.505Z,27
2024-05-09T21:11:08.038Z,25
2024-05-09T21:13:38.432Z,26
2024-05-09T21:16:08.611Z,20
2024-05-09T21:18:39.371Z,24
2024-05-09T21:21:09.793Z,27
2024-05-09T21:23:39.793Z,25
2024-05-09T21:26:10.465Z,26
2024-05-09T21:28:41.127Z,21
2024-05-09T21:31:11.544Z,25
2024-05-09T21:33:41.766Z,23
2024-05-09T21:36:11.752Z,27
2024-05-09T21:38:42.370Z,25
2024-05-09T21:41:12.442Z,23
2024-05-09T21:43:42.862Z,27
2024-05-09T21:46:13.718Z,30
2024-05-09T21:48:44.339Z,34
2024-05-09T21:51:14.806Z,33
2024-05-09T21:53:45.447Z,34
2024-05-09T21:56:15.369Z,36
2024-05-09T21:58:45.968Z,32
2024-05-09T22:01:16.742Z,34
2024-05-09T22:03:46.892Z,30
2024-05-09T22:06:16.822Z,31
2024-05-09T22:08:47.297Z,27
2024-05-09T22:11:18.018Z,33
2024-05-09T22:13:48.348Z,31
2024-05-09T22:16:19.221Z,29
2024-05-09T22:18:49.879Z,32
2024-05-09T22:21:19.806Z,30
2024-05-09T22:23:49.918Z,32
2024-05-09T22:26:20.020Z,29
2024-05-09T22:28:50.444Z,31
2024-05-09T22:31:21.266Z,33
2024-05-09T22:33:51.926Z,33
2024-05-09T22:36:22.448Z,32
2024-05-09T22:38:52.583Z,33
2024-05-09T22:41:23.344Z,31
2024-05-09T22:43:53.714Z,26
2024-05-09T22:46:24.231Z,31
2024-05-09T22:48:54.740Z,33
2024-05-09T22:51:25.224Z,30
2024-05-09T22:53:55.955Z,27
2024-05-09T22:56:26.084Z,28
2024-05-09T22:58:56.731Z,28
2024-05-09T23:01:27.110Z,25
2024-05-09T23:03:57.396Z,26
2024-05-09T23:06:27.461Z,26
2024-05-09T23:08:57.823Z,29
2024-05-09T23:11:27.957Z,32
2024-05-09T23:13:58.774Z,29
2024-05-09T23:16:28.864Z,31
2024-05-09T23:18:59.895Z,27
2024-05-09T23:21:29.770Z,30
2024-05-09T23:24:00.229Z,28
2024-05-09T23:26:30.409Z,33
2024-05-09T23:29:01.163Z,28
2024-05-09T23:31:31.476Z,31
2024-05-09T23:34:02.353Z,29
2024-05-09T23:36:32.666Z,32
2024-05-09T23:39:02.719Z,29
2024-05-09T23:41:33.384Z,30
2024-05-09T23:44:03.922Z,32
2024-05-09T23:46:34.848Z,34
2024-05-09T23:49:05.041Z,32
2024-05-09T23:51:35.496Z,31
2024-05-09T23:54:06.195Z,31
2024-05-09T23:56:36.561Z,31
2024-05-09T23:59:06.729Z,30
